createdAt,value
2019-04-06T00:01:16.718Z,35.33
2019-04-06T00:03:42.919Z,48.83
2019-04-06T00:06:09.138Z,40.30
2019-04-06T00:08:35.274Z,39.53
2019-04-06T00:11:01.325Z,41.37
2019-04-06T00:13:27.412Z,42.70
2019-04-06T00:15:53.552Z,40.63
2019-04-06T00:18:19.614Z,41.43
2019-04-06T00:20:45.732Z,36.57
2019-04-06T00:23:11.943Z,37.37
2019-04-06T00:25:44.171Z,37.13
2019-04-06T00:28:06.080Z,37.47
2019-04-06T00:30:34.143Z,36.37
2019-04-06T00:33:04.871Z,39.63
2019-04-06T00:35:30.915Z,44.07
2019-04-06T00:37:57.418Z,40.83
2019-04-06T00:40:23.607Z,41.07
2019-04-06T00:42:49.752Z,42.57
2019-04-06T00:45:15.872Z,41.63
2019-04-06T00:47:41.961Z,38.93
2019-04-06T00:50:08.358Z,37.63
2019-04-06T00:52:34.615Z,37.57
2019-04-06T00:55:00.803Z,37.33
2019-04-06T00:57:27.025Z,46.70
2019-04-06T00:59:53.287Z,37.73
2019-04-06T01:02:19.455Z,40.03
2019-04-06T01:04:45.564Z,43.17
2019-04-06T01:07:11.755Z,42.27
2019-04-06T01:09:37.995Z,41.63
2019-04-06T01:12:04.047Z,42.97
2019-04-06T01:14:30.163Z,45.33
2019-04-06T01:16:56.351Z,44.97
2019-04-06T01:19:22.551Z,37.40
2019-04-06T01:21:48.687Z,38.53
2019-04-06T01:24:15.104Z,54.30
2019-04-06T01:26:41.387Z,37.47
2019-04-06T01:29:07.634Z,37.97
2019-04-06T01:31:33.754Z,36.30
2019-04-06T01:33:59.811Z,44.17
2019-04-06T01:36:25.867Z,41.13
2019-04-06T01:38:51.910Z,46.73
2019-04-06T01:41:18.027Z,45.80
2019-04-06T01:43:44.158Z,47.07
2019-04-06T01:46:10.267Z,41.50
2019-04-06T01:48:36.426Z,42.73
2019-04-06T01:51:02.611Z,36.57
2019-04-06T01:53:28.786Z,38.27
2019-04-06T01:55:54.927Z,38.80
2019-04-06T01:58:20.993Z,36.73
2019-04-06T02:01:03.854Z,37.80
2019-04-06T02:03:29.996Z,44.67
2019-04-06T02:05:56.111Z,43.73
2019-04-06T02:08:22.340Z,46.17
2019-04-06T02:10:48.479Z,40.10
2019-04-06T02:13:14.618Z,40.80
2019-04-06T02:15:40.763Z,39.90
2019-04-06T02:18:06.851Z,40.47
2019-04-06T02:20:32.967Z,39.57
2019-04-06T02:22:59.154Z,37.03
2019-04-06T02:25:25.316Z,38.87
2019-04-06T02:27:51.498Z,39.77
2019-04-06T02:30:19.566Z,41.00
2019-04-06T02:33:04.341Z,38.77
2019-04-06T02:35:38.427Z,44.77
2019-04-06T02:38:23.349Z,43.03
2019-04-06T02:40:51.409Z,45.00
2019-04-06T02:43:19.544Z,42.33
2019-04-06T02:45:45.771Z,39.50
2019-04-06T02:48:11.829Z,41.80
2019-04-06T02:50:37.882Z,46.20
2019-04-06T02:53:03.999Z,40.37
2019-04-06T02:55:30.227Z,38.87
2019-04-06T02:57:56.443Z,44.77
2019-04-06T03:00:22.529Z,37.03
2019-04-06T03:02:48.896Z,36.90
2019-04-06T03:05:15.101Z,41.13
2019-04-06T03:07:41.338Z,39.43
2019-04-06T03:10:08.170Z,37.80
2019-04-06T03:12:34.436Z,40.63
2019-04-06T03:15:00.778Z,39.33
2019-04-06T03:17:26.873Z,40.80
2019-04-06T03:19:52.992Z,38.23
2019-04-06T03:22:19.117Z,37.13
2019-04-06T03:24:45.251Z,40.50
2019-04-06T03:27:11.370Z,39.63
2019-04-06T03:29:37.607Z,36.30
2019-04-06T03:32:04.066Z,38.33
2019-04-06T03:34:30.201Z,44.03
2019-04-06T03:36:56.298Z,38.93
2019-04-06T03:39:22.525Z,40.30
2019-04-06T03:41:48.815Z,42.57
2019-04-06T03:44:14.873Z,42.03
2019-04-06T03:46:41.233Z,40.53
2019-04-06T03:49:07.399Z,39.60
2019-04-06T03:51:33.456Z,36.13
2019-04-06T03:53:59.539Z,36.67
2019-04-06T03:56:25.598Z,40.30
2019-04-06T03:58:52.355Z,36.07
2019-04-06T04:01:18.904Z,36.50
2019-04-06T04:03:44.953Z,47.27
2019-04-06T04:06:11.012Z,41.90
2019-04-06T04:08:37.068Z,40.57
2019-04-06T04:11:03.328Z,41.20
2019-04-06T04:13:29.378Z,41.87
2019-04-06T04:15:56.885Z,40.50
2019-04-06T04:18:23.420Z,40.47
2019-04-06T04:20:49.720Z,41.07
2019-04-06T04:23:15.948Z,37.50
2019-04-06T04:25:42.088Z,39.93
2019-04-06T04:28:08.399Z,37.63
2019-04-06T04:30:34.971Z,35.87
2019-04-06T04:33:01.210Z,37.33
2019-04-06T04:35:27.264Z,45.70
2019-04-06T04:37:53.408Z,39.00
2019-04-06T04:40:19.467Z,37.73
2019-04-06T04:42:45.702Z,36.63
2019-04-06T04:45:12.497Z,39.47
2019-04-06T04:47:38.547Z,40.43
2019-04-06T04:50:06.111Z,34.50
2019-04-06T04:52:32.156Z,36.93
2019-04-06T04:54:58.215Z,36.77
2019-04-06T04:57:24.268Z,35.47
2019-04-06T04:59:50.322Z,37.73
2019-04-06T05:02:16.384Z,37.10
2019-04-06T05:04:43.327Z,41.20
2019-04-06T05:07:09.387Z,40.00
2019-04-06T05:09:35.751Z,38.67
2019-04-06T05:12:01.893Z,41.30
2019-04-06T05:14:54.719Z,41.10
2019-04-06T05:17:20.780Z,39.43
2019-04-06T05:19:46.832Z,36.23
2019-04-06T05:22:12.878Z,36.70
2019-04-06T05:24:38.935Z,37.03
2019-04-06T05:27:05.088Z,40.20
2019-04-06T05:29:33.058Z,36.50
2019-04-06T05:31:59.247Z,37.50
2019-04-06T05:34:25.706Z,41.53
2019-04-06T05:36:51.845Z,39.43
2019-04-06T05:39:18.027Z,42.40
2019-04-06T05:41:44.075Z,41.87
2019-04-06T05:44:10.159Z,42.53
2019-04-06T05:46:36.220Z,42.40
2019-04-06T05:49:02.280Z,39.77
2019-04-06T05:51:28.423Z,37.47
2019-04-06T05:53:54.523Z,40.27
2019-04-06T05:56:20.587Z,42.80
2019-04-06T05:58:46.644Z,36.87
2019-04-06T06:01:12.708Z,37.73
2019-04-06T06:03:41.080Z,43.17
2019-04-06T06:06:06.746Z,40.87
2019-04-06T06:08:32.792Z,43.47
2019-04-06T06:10:58.871Z,43.17
2019-04-06T06:13:25.064Z,45.13
2019-04-06T06:15:51.190Z,45.20
2019-04-06T06:18:25.687Z,41.23
2019-04-06T06:20:45.228Z,39.43
2019-04-06T06:23:11.622Z,38.03
2019-04-06T06:25:37.671Z,39.27
2019-04-06T06:28:13.889Z,38.80
2019-04-06T06:30:31.691Z,37.10
2019-04-06T06:32:57.822Z,37.30
2019-04-06T06:35:23.913Z,46.43
2019-04-06T06:37:50.102Z,41.47
2019-04-06T06:40:16.180Z,41.63
2019-04-06T06:42:42.231Z,41.37
2019-04-06T06:45:08.845Z,42.07
2019-04-06T06:47:35.072Z,40.97
2019-04-06T06:50:02.021Z,36.07
2019-04-06T06:52:28.183Z,46.73
2019-04-06T06:54:54.255Z,35.30
2019-04-06T06:57:20.307Z,35.67
2019-04-06T06:59:46.363Z,28.60
2019-04-06T07:02:12.504Z,31.30
2019-04-06T07:04:38.667Z,39.93
2019-04-06T07:07:04.731Z,38.23
2019-04-06T07:09:30.910Z,40.40
2019-04-06T07:11:57.150Z,37.53
2019-04-06T07:14:23.315Z,39.03
2019-04-06T07:16:49.367Z,36.77
2019-04-06T07:19:15.799Z,35.07
2019-04-06T07:21:41.898Z,35.87
2019-04-06T07:24:07.960Z,37.53
2019-04-06T07:26:34.007Z,35.03
2019-04-06T07:29:00.128Z,34.60
2019-04-06T07:31:26.334Z,38.07
2019-04-06T07:33:52.394Z,44.27
2019-04-06T07:36:18.455Z,38.50
2019-04-06T07:38:44.507Z,41.10
2019-04-06T07:41:10.956Z,11.93
2019-04-06T07:43:37.383Z,37.03
2019-04-06T07:46:03.429Z,33.43
2019-04-06T07:48:29.898Z,14.00
2019-04-06T07:50:56.023Z,17.07
2019-04-06T07:53:22.455Z,16.30
2019-04-06T07:55:48.516Z,21.50
2019-04-06T07:58:14.805Z,18.50
2019-04-06T08:00:41.036Z,24.00
2019-04-06T08:03:07.188Z,18.57
2019-04-06T08:05:33.452Z,18.07
2019-04-06T08:08:00.258Z,17.20
2019-04-06T08:10:26.670Z,23.30
2019-04-06T08:12:53.114Z,25.23
2019-04-06T08:15:19.167Z,20.27
2019-04-06T08:17:45.219Z,16.37
2019-04-06T08:20:11.771Z,13.10
2019-04-06T08:22:37.918Z,14.13
2019-04-06T08:25:05.087Z,20.85
2019-04-06T08:27:31.510Z,22.03
2019-04-06T08:29:57.789Z,22.10
2019-04-06T08:32:23.922Z,22.33
2019-04-06T08:34:49.975Z,19.05
2019-04-06T08:37:16.106Z,30.57
2019-04-06T08:39:42.289Z,30.90
2019-04-06T08:42:08.423Z,27.00
2019-04-06T08:44:34.767Z,34.57
2019-04-06T08:47:00.928Z,28.67
2019-04-06T08:49:27.055Z,21.77
2019-04-06T08:51:53.100Z,23.47
2019-04-06T08:54:19.564Z,24.10
2019-04-06T08:56:45.983Z,24.57
2019-04-06T08:59:13.578Z,23.23
2019-04-06T09:01:40.209Z,23.00
2019-04-06T09:04:06.919Z,29.50
2019-04-06T09:06:33.091Z,27.63
2019-04-06T09:08:59.156Z,27.17
2019-04-06T09:11:25.215Z,27.23
2019-04-06T09:13:51.266Z,32.47
2019-04-06T09:16:17.700Z,26.83
2019-04-06T09:18:43.871Z,22.70
2019-04-06T09:21:10.539Z,19.93
2019-04-06T09:23:36.681Z,28.87
2019-04-06T09:26:02.935Z,20.07
2019-04-06T09:28:28.996Z,23.60
2019-04-06T09:30:55.083Z,21.47
2019-04-06T09:33:21.259Z,21.03
2019-04-06T09:35:47.315Z,23.80
2019-04-06T09:38:19.698Z,25.43
2019-04-06T09:40:47.528Z,35.67
2019-04-06T09:43:13.723Z,30.23
2019-04-06T09:45:42.117Z,29.40
2019-04-06T09:48:15.940Z,30.90
2019-04-06T09:50:46.528Z,22.70
2019-04-06T09:53:26.851Z,21.20
2019-04-06T09:55:54.802Z,19.47
2019-04-06T09:58:28.449Z,33.83
2019-04-06T10:00:56.505Z,21.13
2019-04-06T10:03:41.104Z,21.67
2019-04-06T10:06:25.704Z,24.13
2019-04-06T10:08:56.758Z,33.43
2019-04-06T10:11:33.731Z,21.70
2019-04-06T10:14:16.919Z,25.87
2019-04-06T10:16:44.915Z,26.33
2019-04-06T10:19:15.596Z,18.30
2019-04-06T10:21:43.667Z,24.87
2019-04-06T10:24:28.468Z,22.93
2019-04-06T10:26:56.527Z,19.33
2019-04-06T10:29:33.311Z,18.23
2019-04-06T10:32:01.295Z,16.37
2019-04-06T10:34:41.015Z,21.40
2019-04-06T10:37:18.044Z,25.27
2019-04-06T10:39:51.942Z,22.93
2019-04-06T10:42:19.979Z,28.00
2019-04-06T10:44:57.114Z,23.00
2019-04-06T10:47:30.982Z,30.75
2019-04-06T10:50:15.483Z,17.93
2019-04-06T10:52:43.598Z,22.13
2019-04-06T10:55:28.133Z,26.60
2019-04-06T10:58:08.327Z,16.67
2019-04-06T11:00:51.444Z,20.03
2019-04-06T11:03:22.260Z,18.93
2019-04-06T11:06:05.216Z,24.27
2019-04-06T11:08:36.006Z,29.10
2019-04-06T11:11:04.040Z,28.83
2019-04-06T11:13:32.004Z,28.70
2019-04-06T11:16:00.186Z,37.87
2019-04-06T11:18:44.911Z,27.73
2019-04-06T11:21:19.216Z,19.83
2019-04-06T11:23:49.841Z,29.27
2019-04-06T11:26:34.503Z,27.67
2019-04-06T11:29:11.523Z,46.80
2019-04-06T11:31:39.504Z,22.73
2019-04-06T11:34:25.006Z,32.07
2019-04-06T11:37:09.777Z,30.63
2019-04-06T11:39:46.727Z,28.67
2019-04-06T11:42:21.286Z,28.57
2019-04-06T11:44:49.397Z,24.05
2019-04-06T11:47:20.922Z,27.83
2019-04-06T11:50:06.967Z,22.00
2019-04-06T11:52:35.073Z,19.97
2019-04-06T11:55:19.926Z,27.42
2019-04-06T11:58:06.076Z,26.40
2019-04-06T12:00:39.811Z,22.90
2019-04-06T12:03:17.095Z,23.03
2019-04-06T12:05:47.923Z,27.00
2019-04-06T12:08:19.053Z,26.93
2019-04-06T12:10:50.781Z,26.40
2019-04-06T12:13:19.295Z,31.60
2019-04-06T12:15:47.255Z,28.93
2019-04-06T12:18:18.593Z,26.33
2019-04-06T12:21:03.824Z,33.90
2019-04-06T12:23:37.543Z,27.97
2019-04-06T12:26:18.203Z,22.30
2019-04-06T12:28:46.682Z,25.67
2019-04-06T12:31:23.659Z,22.63
2019-04-06T12:34:08.187Z,34.90
2019-04-06T12:36:53.356Z,26.93
2019-04-06T12:39:24.427Z,29.17
2019-04-06T12:41:52.786Z,23.93
2019-04-06T12:44:21.155Z,27.93
2019-04-06T12:46:49.658Z,28.63
2019-04-06T12:49:23.388Z,28.87
2019-04-06T12:52:06.254Z,28.40
2019-04-06T12:54:40.019Z,25.33
2019-04-06T12:57:08.083Z,24.20
2019-04-06T12:59:41.899Z,21.53
2019-04-06T13:02:18.719Z,25.33
2019-04-06T13:04:46.742Z,28.77
2019-04-06T13:07:24.645Z,26.97
2019-04-06T13:09:53.035Z,29.33
2019-04-06T13:12:35.914Z,28.20
2019-04-06T13:15:05.119Z,28.73
2019-04-06T13:17:39.508Z,27.10
2019-04-06T13:20:08.179Z,26.03
2019-04-06T13:22:54.925Z,27.43
2019-04-06T13:25:32.081Z,24.40
2019-04-06T13:28:03.083Z,33.80
2019-04-06T13:30:36.628Z,23.27
2019-04-06T13:33:10.270Z,23.70
2019-04-06T13:35:55.542Z,32.83
2019-04-06T13:38:35.996Z,33.27
2019-04-06T13:41:20.512Z,31.63
2019-04-06T13:43:49.078Z,35.13
2019-04-06T13:46:26.767Z,29.47
2019-04-06T13:49:07.216Z,27.03
2019-04-06T13:51:44.300Z,26.07
2019-04-06T13:54:14.830Z,24.70
2019-04-06T13:56:59.359Z,25.33
2019-04-06T13:59:27.411Z,27.77
2019-04-06T14:02:01.620Z,25.53
2019-04-06T14:04:29.871Z,26.57
2019-04-06T14:07:01.514Z,33.53
2019-04-06T14:09:35.747Z,31.63
2019-04-06T14:12:07.363Z,29.67
2019-04-06T14:14:47.955Z,31.27
2019-04-06T14:17:16.218Z,36.27
2019-04-06T14:19:59.429Z,38.30
2019-04-06T14:22:30.788Z,35.27
2019-04-06T14:25:17.054Z,27.03
2019-04-06T14:28:00.083Z,31.07
2019-04-06T14:30:31.091Z,32.70
2019-04-06T14:33:05.182Z,23.87
2019-04-06T14:35:35.887Z,36.83
2019-04-06T14:38:04.243Z,46.97
2019-04-06T14:40:41.362Z,44.37
2019-04-06T14:43:09.888Z,47.63
2019-04-06T14:45:44.422Z,37.83
2019-04-06T14:48:15.658Z,32.20
2019-04-06T14:50:59.379Z,26.13
2019-04-06T14:53:27.956Z,22.00
2019-04-06T14:56:13.352Z,24.87
2019-04-06T14:58:53.659Z,24.87
2019-04-06T15:01:36.990Z,26.70
2019-04-06T15:04:10.204Z,39.70
2019-04-06T15:06:41.604Z,33.77
2019-04-06T15:09:26.743Z,32.60
2019-04-06T15:12:11.770Z,27.97
2019-04-06T15:14:56.417Z,32.27
2019-04-06T15:17:24.762Z,33.27
2019-04-06T15:19:55.235Z,27.83
2019-04-06T15:22:26.163Z,31.00
2019-04-06T15:25:03.272Z,20.67
2019-04-06T15:27:31.228Z,26.43
2019-04-06T15:30:16.811Z,26.30
2019-04-06T15:32:59.990Z,26.67
2019-04-06T15:35:44.487Z,32.23
2019-04-06T15:38:28.335Z,32.33
2019-04-06T15:41:02.110Z,34.97
2019-04-06T15:43:46.948Z,34.57
2019-04-06T15:46:20.739Z,29.83
2019-04-06T15:49:00.528Z,25.67
2019-04-06T15:51:34.167Z,25.60
2019-04-06T15:54:18.875Z,26.40
2019-04-06T15:56:47.116Z,23.60
2019-04-06T15:59:20.874Z,22.83
2019-04-06T16:02:00.310Z,26.53
2019-04-06T16:04:24.017Z,32.27
2019-04-06T16:06:58.300Z,33.93
2019-04-06T16:09:26.835Z,28.10
2019-04-06T16:12:07.006Z,32.47
2019-04-06T16:14:38.327Z,32.47
2019-04-06T16:17:12.535Z,33.00
2019-04-06T16:19:40.860Z,25.97
2019-04-06T16:22:11.959Z,34.90
2019-04-06T16:24:48.882Z,32.37
2019-04-06T16:27:20.267Z,25.10
2019-04-06T16:29:48.313Z,24.87
2019-04-06T16:32:32.914Z,28.43
2019-04-06T16:34:58.382Z,24.43
2019-04-06T16:37:41.681Z,46.53
2019-04-06T16:40:10.513Z,26.00
2019-04-06T16:42:38.620Z,30.97
2019-04-06T16:45:15.902Z,29.23
2019-04-06T16:47:53.407Z,28.73
2019-04-06T16:50:21.367Z,25.70
2019-04-06T16:52:55.287Z,24.60
2019-04-06T16:55:23.431Z,25.37
2019-04-06T16:57:51.395Z,27.80
2019-04-06T17:00:29.224Z,28.83
2019-04-06T17:02:57.739Z,23.83
2019-04-06T17:05:29.151Z,37.27
2019-04-06T17:07:57.255Z,24.77
2019-04-06T17:10:30.753Z,30.33
2019-04-06T17:13:05.078Z,26.43
2019-04-06T17:15:36.276Z,26.50
2019-04-06T17:18:07.256Z,33.10
2019-04-06T17:20:38.987Z,22.90
2019-04-06T17:23:16.191Z,26.67
2019-04-06T17:25:56.094Z,22.60
2019-04-06T17:28:29.915Z,22.23
2019-04-06T17:31:13.596Z,23.00
2019-04-06T17:33:41.555Z,32.63
2019-04-06T17:36:24.495Z,30.33
2019-04-06T17:38:53.288Z,27.80
2019-04-06T17:41:21.311Z,30.37
2019-04-06T17:43:49.541Z,38.83
2019-04-06T17:46:23.355Z,29.20
2019-04-06T17:49:06.625Z,24.83
2019-04-06T17:51:43.562Z,23.13
2019-04-06T17:54:11.844Z,21.50
2019-04-06T17:56:56.363Z,22.33
2019-04-06T17:59:41.496Z,26.80
2019-04-06T18:02:26.035Z,23.73
2019-04-06T18:04:54.386Z,25.85
2019-04-06T18:07:22.455Z,24.30
2019-04-06T18:09:53.203Z,28.53
2019-04-06T18:12:21.370Z,27.50
2019-04-06T18:14:47.423Z,28.05
2019-04-06T18:17:13.877Z,25.67
2019-04-06T18:19:40.583Z,19.83
2019-04-06T18:22:06.636Z,23.83
2019-04-06T18:24:33.171Z,21.30
2019-04-06T18:26:59.243Z,25.00
2019-04-06T18:29:25.399Z,26.90
2019-04-06T18:31:53.871Z,25.10
2019-04-06T18:34:19.923Z,31.77
2019-04-06T18:37:04.278Z,31.10
2019-04-06T18:39:31.240Z,29.17
2019-04-06T18:41:57.735Z,32.13
2019-04-06T18:44:24.159Z,28.93
2019-04-06T18:46:50.595Z,34.23
2019-04-06T18:49:17.091Z,23.47
2019-04-06T18:51:43.364Z,21.03
2019-04-06T18:54:09.918Z,26.10
2019-04-06T18:56:36.131Z,22.00
2019-04-06T18:59:02.180Z,21.63
2019-04-06T19:01:28.261Z,22.27
2019-04-06T19:03:54.439Z,31.40
2019-04-06T19:06:20.493Z,32.77
2019-04-06T19:08:46.843Z,28.00
2019-04-06T19:11:16.388Z,26.60
2019-04-06T19:13:42.979Z,35.07
2019-04-06T19:16:09.444Z,30.00
2019-04-06T19:18:35.615Z,24.30
2019-04-06T19:21:01.743Z,22.90
2019-04-06T19:23:28.399Z,22.97
2019-04-06T19:25:54.548Z,21.43
2019-04-06T19:28:20.959Z,22.00
2019-04-06T19:30:47.175Z,20.63
2019-04-06T19:33:22.724Z,25.33
2019-04-06T19:35:41.515Z,25.77
2019-04-06T19:38:07.668Z,32.27
2019-04-06T19:40:33.846Z,22.10
2019-04-06T19:43:00.047Z,28.00
2019-04-06T19:45:26.263Z,29.37
2019-04-06T19:47:52.857Z,25.13
2019-04-06T19:50:19.158Z,26.43
2019-04-06T19:52:45.813Z,35.80
2019-04-06T19:55:12.703Z,25.83
2019-04-06T19:57:39.299Z,23.87
2019-04-06T20:00:06.790Z,23.17
2019-04-06T20:02:33.386Z,27.43
2019-04-06T20:04:59.989Z,25.30
2019-04-06T20:07:26.039Z,28.97
2019-04-06T20:09:52.175Z,26.10
2019-04-06T20:12:18.743Z,31.47
2019-04-06T20:14:45.594Z,28.80
2019-04-06T20:17:12.202Z,23.57
2019-04-06T20:19:38.784Z,22.03
2019-04-06T20:22:04.835Z,21.87
2019-04-06T20:24:30.921Z,27.53
2019-04-06T20:26:56.979Z,19.80
2019-04-06T20:29:23.725Z,25.97
2019-04-06T20:31:49.943Z,23.63
2019-04-06T20:34:16.467Z,27.43
2019-04-06T20:36:43.069Z,27.37
2019-04-06T20:39:09.250Z,27.90
2019-04-06T20:41:35.821Z,33.37
2019-04-06T20:44:01.986Z,30.90
2019-04-06T20:46:28.579Z,28.00
2019-04-06T20:48:54.783Z,23.97
2019-04-06T20:51:21.432Z,23.20
2019-04-06T20:53:47.792Z,27.07
2019-04-06T20:56:14.518Z,26.37
2019-04-06T20:58:41.273Z,22.93
2019-04-06T21:01:07.926Z,21.60
2019-04-06T21:03:34.651Z,29.97
2019-04-06T21:06:01.836Z,25.83
2019-04-06T21:08:28.586Z,33.00
2019-04-06T21:10:55.072Z,30.03
2019-04-06T21:13:21.505Z,28.27
2019-04-06T21:15:47.631Z,21.97
2019-04-06T21:18:14.593Z,28.93
2019-04-06T21:20:41.212Z,22.83
2019-04-06T21:23:07.764Z,22.50
2019-04-06T21:25:34.363Z,21.07
2019-04-06T21:28:00.960Z,25.33
2019-04-06T21:30:27.768Z,23.25
2019-04-06T21:32:54.110Z,25.80
2019-04-06T21:35:20.308Z,21.87
2019-04-06T21:37:46.731Z,25.40
2019-04-06T21:40:13.175Z,25.87
2019-04-06T21:42:39.292Z,27.87
2019-04-06T21:45:06.339Z,46.88
2019-04-06T21:47:33.037Z,23.03
2019-04-06T21:49:59.156Z,25.05
2019-04-06T21:52:25.282Z,23.87
2019-04-06T21:54:51.327Z,19.25
2019-04-06T21:57:17.431Z,25.10
2019-04-06T21:59:43.916Z,28.13
2019-04-06T22:02:10.063Z,26.00
2019-04-06T22:04:36.523Z,33.13
2019-04-06T22:07:04.245Z,33.70
2019-04-06T22:09:30.671Z,31.97
2019-04-06T22:11:57.099Z,30.60
2019-04-06T22:14:23.895Z,30.67
2019-04-06T22:16:50.607Z,28.47
2019-04-06T22:19:17.013Z,22.13
2019-04-06T22:21:43.207Z,22.83
2019-04-06T22:24:09.551Z,24.83
2019-04-06T22:26:36.296Z,22.87
2019-04-06T22:29:03.107Z,24.10
2019-04-06T22:31:29.175Z,22.50
2019-04-06T22:33:55.631Z,23.77
2019-04-06T22:36:22.267Z,27.40
2019-04-06T22:38:49.213Z,32.60
2019-04-06T22:41:15.572Z,31.17
2019-04-06T22:43:41.735Z,32.43
2019-04-06T22:46:07.904Z,29.73
2019-04-06T22:48:34.652Z,26.30
2019-04-06T22:51:00.880Z,23.67
2019-04-06T22:53:27.183Z,23.43
2019-04-06T22:55:53.239Z,22.00
2019-04-06T22:58:19.729Z,26.93
2019-04-06T23:00:48.531Z,21.60
2019-04-06T23:03:33.457Z,26.07
2019-04-06T23:06:01.539Z,27.70
2019-04-06T23:08:27.783Z,28.57
2019-04-06T23:10:54.315Z,29.50
2019-04-06T23:13:20.377Z,28.73
2019-04-06T23:15:47.929Z,28.40
2019-04-06T23:18:14.399Z,30.10
2019-04-06T23:20:40.443Z,22.57
2019-04-06T23:23:07.435Z,24.63
2019-04-06T23:25:34.894Z,24.43
2019-04-06T23:28:01.038Z,23.67
2019-04-06T23:30:27.183Z,22.50
2019-04-06T23:32:53.513Z,26.97
2019-04-06T23:35:20.064Z,32.47
2019-04-06T23:37:46.115Z,30.67
2019-04-06T23:40:12.353Z,30.73
2019-04-06T23:42:38.811Z,27.47
2019-04-06T23:45:05.980Z,28.07
2019-04-06T23:47:32.619Z,28.57
2019-04-06T23:49:58.783Z,23.70
2019-04-06T23:52:25.356Z,24.73
2019-04-06T23:54:52.050Z,22.10
2019-04-06T23:57:18.701Z,25.40
2019-04-06T23:59:45.295Z,25.53
